Time;durP1;ratioP1;P1;durP2;ratioP2;P2;SDS_P1;SDS_P2;PMS_P1;PMS_P2;Temp;Humidity;BMP_temperature;BMP_pressure;BME280_temperature;BME280_humidity;BME280_pressure;Samples;Min_cycle;Max_cycle;Signal;HPM_P1;HPM_P2
2023/05/16 00:01:13;;;;;;;10.77;2.78;;;8.50;99.90;;;;;;5054450;28;20048;-70
2023/05/16 00:03:41;;;;;;;8.65;2.72;;;8.50;99.90;;;;;;5053792;28;20052;-71
2023/05/16 00:06:08;;;;;;;10.98;2.47;;;8.50;99.90;;;;;;5071950;28;20060;-70
2023/05/16 00:08:35;;;;;;;9.68;2.72;;;8.40;99.90;;;;;;5054252;28;20052;-70
2023/05/16 00:11:02;;;;;;;12.55;2.78;;;8.50;99.90;;;;;;5071735;28;20049;-70
2023/05/16 00:13:29;;;;;;;7.82;2.53;;;8.50;99.90;;;;;;5054197;28;20450;-70
2023/05/16 00:15:58;;;;;;;14.70;2.50;;;8.50;99.90;;;;;;5054001;28;20075;-70
2023/05/16 00:18:26;;;;;;;9.60;2.63;;;8.50;99.90;;;;;;5053305;28;20070;-70
2023/05/16 00:20:53;;;;;;;14.70;2.95;;;8.50;99.90;;;;;;5054086;28;20060;-70
2023/05/16 00:23:20;;;;;;;16.05;2.55;;;8.40;99.90;;;;;;5071822;28;20492;-71
2023/05/16 00:25:49;;;;;;;7.43;2.63;;;8.40;99.90;;;;;;5071533;28;20040;-71
2023/05/16 00:28:17;;;;;;;10.45;3.10;;;8.90;99.90;;;;;;5069775;28;20094;-70
2023/05/16 00:30:44;;;;;;;19.35;3.00;;;8.40;99.90;;;;;;5053991;28;20637;-70
2023/05/16 00:33:10;;;;;;;9.45;2.60;;;8.40;99.90;;;;;;5055064;28;20113;-70
2023/05/16 00:35:39;;;;;;;15.60;3.30;;;8.40;99.90;;;;;;5076042;28;20106;-71
2023/05/16 00:38:06;;;;;;;9.43;2.17;;;8.30;99.90;;;;;;5057387;28;20128;-71
2023/05/16 00:40:33;;;;;;;12.70;2.95;;;8.30;99.90;;;;;;5075828;28;20115;-70
2023/05/16 00:43:00;;;;;;;13.90;3.08;;;8.20;99.90;;;;;;5075968;28;20040;-70
2023/05/16 00:45:27;;;;;;;19.98;3.65;;;8.10;99.90;;;;;;5074966;28;20530;-70
2023/05/16 00:47:54;;;;;;;10.90;2.50;;;8.10;99.90;;;;;;5057792;28;20052;-70
2023/05/16 00:50:21;;;;;;;12.23;2.30;;;8.10;99.90;;;;;;5073660;28;20468;-71
2023/05/16 00:52:49;;;;;;;13.93;2.10;;;8.10;99.90;;;;;;5056785;28;20056;-71
2023/05/16 00:55:17;;;;;;;13.10;2.38;;;8.10;99.90;;;;;;5057527;28;20123;-71
2023/05/16 00:57:44;;;;;;;13.25;2.58;;;8.10;99.90;;;;;;5075395;28;20041;-70
2023/05/16 01:00:14;;;;;;;14.82;3.25;;;8.10;99.90;;;;;;5057216;28;20052;-70
2023/05/16 01:02:41;;;;;;;11.32;2.42;;;8.00;99.90;;;;;;5057677;28;20143;-71
2023/05/16 01:05:08;;;;;;;18.75;2.78;;;8.00;99.90;;;;;;5057775;28;20438;-70
2023/05/16 01:07:36;;;;;;;15.95;3.42;;;7.90;99.90;;;;;;5056569;28;20060;-68
2023/05/16 01:10:06;;;;;;;14.30;3.30;;;7.90;99.90;;;;;;5075437;28;20052;-70
2023/05/16 01:12:40;;;;;;;10.27;2.22;;;7.90;99.90;;;;;;5056995;28;20053;-71
2023/05/16 01:15:10;;;;;;;11.77;2.50;;;8.30;99.90;;;;;;5055121;28;20052;-70
2023/05/16 01:17:50;;;;;;;13.85;2.70;;;7.80;99.90;;;;;;5055463;28;20443;-70
2023/05/16 01:20:28;;;;;;;9.33;1.97;;;7.80;99.90;;;;;;5074709;28;20088;-71
2023/05/16 01:23:07;;;;;;;15.77;2.92;;;7.80;99.90;;;;;;5056157;28;20052;-71
2023/05/16 01:25:54;;;;;;;9.75;2.00;;;7.80;99.90;;;;;;5057401;28;20064;-71
2023/05/16 01:28:24;;;;;;;11.88;3.13;;;7.80;99.90;;;;;;5089056;28;20067;-71
2023/05/16 01:30:51;;;;;;;12.80;2.83;;;8.50;99.90;;;;;;5056977;28;20055;-71
2023/05/16 01:33:18;;;;;;;10.65;2.30;;;7.90;99.90;;;;;;5056658;28;20060;-71
2023/05/16 01:35:55;;;;;;;19.98;3.40;;;7.90;99.90;;;;;;5074085;28;20094;-71
2023/05/16 01:38:26;;;;;;;9.88;2.88;;;8.00;99.90;;;;;;5075003;28;20051;-71
2023/05/16 01:40:59;;;;;;;13.77;3.58;;;8.00;99.90;;;;;;5055189;28;20076;-71
2023/05/16 01:43:42;;;;;;;18.40;3.13;;;8.00;99.90;;;;;;5071974;28;20447;-71
2023/05/16 01:46:12;;;;;;;9.77;3.00;;;8.10;99.90;;;;;;5055001;28;20048;-71
2023/05/16 01:48:44;;;;;;;10.30;2.92;;;8.10;99.90;;;;;;5072343;28;20052;-71
2023/05/16 01:51:13;;;;;;;13.23;3.60;;;8.00;99.90;;;;;;5054471;28;20044;-71
2023/05/16 01:53:41;;;;;;;16.08;2.67;;;8.00;99.90;;;;;;5074412;28;20064;-72
2023/05/16 01:56:14;;;;;;;16.85;3.53;;;7.90;99.90;;;;;;5055779;28;20040;-72
2023/05/16 01:58:45;;;;;;;9.07;2.78;;;7.90;99.90;;;;;;5072680;28;20055;-72
2023/05/16 02:01:13;;;;;;;12.43;2.42;;;7.90;99.90;;;;;;5056608;28;20049;-71
2023/05/16 02:03:40;;;;;;;9.63;2.50;;;7.80;99.90;;;;;;5055797;28;20460;-72
2023/05/16 02:06:07;;;;;;;14.52;2.83;;;7.80;99.90;;;;;;5052891;28;20107;-71
2023/05/16 02:08:34;;;;;;;11.05;2.70;;;7.80;99.90;;;;;;5052929;28;20049;-73
2023/05/16 02:11:01;;;;;;;11.82;3.22;;;7.70;99.90;;;;;;5052665;28;20170;-72
2023/05/16 02:13:28;;;;;;;9.57;2.67;;;7.70;99.90;;;;;;5053001;28;20087;-72
2023/05/16 02:15:57;;;;;;;16.88;3.08;;;7.60;99.90;;;;;;5053101;28;20049;-70
2023/05/16 02:18:23;;;;;;;12.20;3.40;;;7.70;99.90;;;;;;5052448;28;20053;-72
2023/05/16 02:20:51;;;;;;;16.48;3.25;;;7.70;99.90;;;;;;5052621;28;20067;-74
2023/05/16 02:23:18;;;;;;;8.55;2.92;;;7.80;99.90;;;;;;5052957;28;20405;-72
2023/05/16 02:25:45;;;;;;;19.10;3.13;;;7.90;99.90;;;;;;5052352;28;20045;-71
2023/05/16 02:28:12;;;;;;;11.07;2.85;;;8.00;99.90;;;;;;5052870;28;20444;-71
2023/05/16 02:30:38;;;;;;;14.05;2.70;;;8.10;99.90;;;;;;5053153;28;20055;-72
2023/05/16 02:33:07;;;;;;;16.75;2.80;;;8.20;99.90;;;;;;5052883;28;20118;-71
2023/05/16 02:35:34;;;;;;;15.93;2.85;;;8.20;99.90;;;;;;5050601;28;20049;-71
2023/05/16 02:38:01;;;;;;;14.18;2.90;;;8.30;99.90;;;;;;5053183;28;20041;-71
2023/05/16 02:40:27;;;;;;;11.65;2.97;;;8.30;99.90;;;;;;5052516;28;20087;-71
2023/05/16 02:42:54;;;;;;;16.95;3.38;;;8.20;99.90;;;;;;5053682;28;20041;-73
2023/05/16 02:45:21;;;;;;;12.77;2.97;;;8.10;99.90;;;;;;5052817;28;20037;-72
2023/05/16 02:47:48;;;;;;;11.27;2.72;;;8.10;99.90;;;;;;5051396;28;20041;-72
2023/05/16 02:50:16;;;;;;;15.18;2.75;;;7.90;99.90;;;;;;5053391;28;20052;-71
2023/05/16 02:52:43;;;;;;;14.32;3.30;;;7.90;99.90;;;;;;5052797;28;20106;-71
2023/05/16 02:55:11;;;;;;;8.73;2.75;;;7.90;99.90;;;;;;5051996;28;20063;-72
2023/05/16 02:57:38;;;;;;;18.90;3.00;;;7.90;99.90;;;;;;5051560;28;20456;-71
2023/05/16 03:00:06;;;;;;;8.95;3.10;;;7.90;99.90;;;;;;5052615;28;20466;-71
2023/05/16 03:02:33;;;;;;;8.35;2.65;;;8.00;99.90;;;;;;5052352;28;20378;-72
2023/05/16 03:05:00;;;;;;;9.25;3.00;;;8.10;99.90;;;;;;5052981;28;20455;-72
2023/05/16 03:07:28;;;;;;;12.68;2.78;;;8.10;99.90;;;;;;5054291;28;20056;-72
2023/05/16 03:09:55;;;;;;;11.40;2.17;;;8.10;99.90;;;;;;5053387;28;20048;-72
2023/05/16 03:12:22;;;;;;;8.98;2.20;;;8.10;99.90;;;;;;5055084;28;20057;-71
2023/05/16 03:14:50;;;;;;;13.27;2.90;;;8.10;99.90;;;;;;5072202;28;20094;-70
2023/05/16 03:17:17;;;;;;;17.15;3.05;;;8.00;99.90;;;;;;5072601;28;20056;-72
2023/05/16 03:19:44;;;;;;;10.70;2.70;;;8.00;99.90;;;;;;5054803;28;20048;-70
2023/05/16 03:22:11;;;;;;;10.50;2.67;;;7.90;99.90;;;;;;5071950;28;20049;-71
2023/05/16 03:24:39;;;;;;;10.85;2.75;;;7.80;99.90;;;;;;5054785;28;20409;-71
2023/05/16 03:27:06;;;;;;;11.15;2.88;;;8.50;99.90;;;;;;5071891;28;20491;-72
2023/05/16 03:29:34;;;;;;;10.85;2.85;;;7.70;99.90;;;;;;5072522;28;20048;-71
2023/05/16 03:32:00;;;;;;;8.93;2.70;;;7.70;99.90;;;;;;5054261;28;20541;-71
2023/05/16 03:34:28;;;;;;;15.27;3.00;;;7.60;99.90;;;;;;5068340;28;20725;-73
2023/05/16 03:36:55;;;;;;;17.42;3.17;;;7.60;99.90;;;;;;5043186;28;20557;-73
2023/05/16 03:39:22;;;;;;;12.02;2.70;;;8.80;99.90;;;;;;5067994;28;20550;-72
2023/05/16 03:41:50;;;;;;;9.70;2.58;;;8.00;99.90;;;;;;5052191;28;20052;-73
2023/05/16 03:44:17;;;;;;;15.75;3.25;;;8.10;99.90;;;;;;5069143;28;20049;-72
2023/05/16 03:46:44;;;;;;;13.65;3.97;;;8.20;99.90;;;;;;5068519;28;20041;-73
2023/05/16 03:49:11;;;;;;;10.00;2.28;;;8.20;99.90;;;;;;5049409;28;20088;-74
2023/05/16 03:51:38;;;;;;;10.27;2.72;;;8.20;99.90;;;;;;5070909;28;20531;-72
2023/05/16 03:54:05;;;;;;;8.35;2.58;;;8.30;99.90;;;;;;5052173;28;20060;-73
2023/05/16 03:56:32;;;;;;;12.05;2.70;;;8.20;99.90;;;;;;5070293;28;20045;-72
2023/05/16 03:59:00;;;;;;;8.05;2.08;;;8.10;99.90;;;;;;5069797;28;20048;-72
2023/05/16 04:01:28;;;;;;;6.95;2.22;;;8.00;99.90;;;;;;5070199;28;20048;-72
2023/05/16 04:03:55;;;;;;;10.48;2.75;;;8.00;99.90;;;;;;5051404;28;20052;-71
2023/05/16 04:06:22;;;;;;;12.68;2.80;;;7.90;99.90;;;;;;5050976;28;20122;-72
2023/05/16 04:08:49;;;;;;;22.73;3.28;;;7.90;99.90;;;;;;5070234;28;20400;-72
2023/05/16 04:11:16;;;;;;;14.13;3.28;;;7.90;99.90;;;;;;5050864;28;20059;-72
2023/05/16 04:13:43;;;;;;;14.43;3.53;;;8.00;99.90;;;;;;5053452;28;20083;-72
2023/05/16 04:16:11;;;;;;;14.57;2.47;;;7.90;99.90;;;;;;5049738;28;20097;-72
2023/05/16 04:18:38;;;;;;;11.60;3.10;;;7.90;99.90;;;;;;5053533;28;20489;-72
2023/05/16 04:21:06;;;;;;;9.93;2.35;;;8.00;99.90;;;;;;5051950;28;20055;-76
2023/05/16 04:23:33;;;;;;;10.35;2.58;;;8.10;99.90;;;;;;5052384;28;20068;-76
2023/05/16 04:26:00;;;;;;;9.15;2.70;;;8.10;99.90;;;;;;5069829;28;20439;-77
2023/05/16 04:28:27;;;;;;;9.35;2.50;;;8.80;99.90;;;;;;5070983;28;20054;-76
2023/05/16 04:30:54;;;;;;;8.73;2.88;;;8.10;99.90;;;;;;5050861;28;20504;-76
2023/05/16 04:33:22;;;;;;;10.07;2.35;;;8.40;99.90;;;;;;5053098;28;20049;-76
2023/05/16 04:35:49;;;;;;;16.95;2.67;;;8.30;99.90;;;;;;5050606;28;20040;-71
2023/05/16 04:38:16;;;;;;;11.68;2.50;;;8.20;99.90;;;;;;5050401;28;20140;-71
2023/05/16 04:40:43;;;;;;;7.47;1.95;;;8.00;99.90;;;;;;5049859;28;20060;-72
2023/05/16 04:43:10;;;;;;;11.57;2.53;;;8.00;99.90;;;;;;5067249;28;20047;-69
2023/05/16 04:45:37;;;;;;;7.78;2.53;;;8.00;99.90;;;;;;5052355;28;20098;-71
2023/05/16 04:48:04;;;;;;;10.13;2.83;;;8.00;99.90;;;;;;5051955;28;20122;-71
2023/05/16 04:50:33;;;;;;;7.25;2.45;;;8.00;99.90;;;;;;5052545;28;20054;-73
2023/05/16 04:52:59;;;;;;;9.10;2.33;;;8.00;99.90;;;;;;5051009;28;20474;-72
2023/05/16 04:55:26;;;;;;;7.35;2.08;;;8.10;99.90;;;;;;5052628;28;20044;-72
2023/05/16 04:57:53;;;;;;;10.77;2.65;;;8.10;99.90;;;;;;5068435;28;20040;-71
2023/05/16 05:00:21;;;;;;;7.30;2.33;;;8.20;99.90;;;;;;5050135;28;20122;-72
2023/05/16 05:02:48;;;;;;;12.52;2.30;;;8.20;99.90;;;;;;5050076;28;20416;-72
2023/05/16 05:05:14;;;;;;;12.48;2.60;;;8.20;99.90;;;;;;5052268;28;20059;-72
2023/05/16 05:07:43;;;;;;;7.85;2.70;;;8.20;99.90;;;;;;5065154;28;20063;-72
2023/05/16 05:10:11;;;;;;;5.97;1.95;;;8.20;99.90;;;;;;5050993;28;20056;-68
2023/05/16 05:12:38;;;;;;;9.50;2.13;;;8.30;99.90;;;;;;5068092;28;20235;-69
2023/05/16 05:15:06;;;;;;;6.57;2.55;;;8.30;99.90;;;;;;5050543;28;20385;-70
2023/05/16 05:17:33;;;;;;;8.43;2.25;;;8.40;99.90;;;;;;5048679;28;20442;-70
2023/05/16 05:20:00;;;;;;;8.75;2.42;;;8.50;99.90;;;;;;5051165;28;20056;-68
2023/05/16 05:22:27;;;;;;;10.52;2.50;;;8.60;99.90;;;;;;5053436;28;20060;-69
2023/05/16 05:24:55;;;;;;;9.95;2.78;;;9.50;99.90;;;;;;5072867;28;20102;-70
2023/05/16 05:27:22;;;;;;;8.73;2.53;;;9.00;99.90;;;;;;5071242;28;20044;-70
2023/05/16 05:29:49;;;;;;;7.10;2.10;;;9.10;99.90;;;;;;5054170;28;20060;-70
2023/05/16 05:32:16;;;;;;;8.63;2.15;;;9.30;99.90;;;;;;5073043;28;20076;-70
2023/05/16 05:34:42;;;;;;;7.03;2.10;;;9.40;99.90;;;;;;5053483;28;20404;-69
2023/05/16 05:37:09;;;;;;;12.55;2.70;;;9.50;99.90;;;;;;5073286;28;20041;-69
2023/05/16 05:39:36;;;;;;;11.45;2.40;;;9.90;99.90;;;;;;5053939;28;20060;-71
2023/05/16 05:42:05;;;;;;;7.43;1.92;;;10.10;99.90;;;;;;5073763;28;20067;-71
2023/05/16 05:44:32;;;;;;;10.38;1.85;;;10.30;99.90;;;;;;5053492;28;20060;-70
2023/05/16 05:46:59;;;;;;;8.60;2.00;;;10.60;99.90;;;;;;5055954;28;20060;-71
2023/05/16 05:49:26;;;;;;;6.95;1.92;;;10.90;99.90;;;;;;5071044;28;20500;-70
2023/05/16 05:51:53;;;;;;;7.32;2.30;;;11.20;99.90;;;;;;5055919;28;20113;-71
2023/05/16 05:54:21;;;;;;;9.77;2.53;;;11.70;99.90;;;;;;5072427;28;20106;-71
2023/05/16 05:56:48;;;;;;;10.40;2.72;;;12.00;99.90;;;;;;5073174;28;20119;-71
2023/05/16 05:59:16;;;;;;;8.88;2.17;;;12.30;99.90;;;;;;5071537;28;20052;-71
2023/05/16 06:01:43;;;;;;;12.90;3.13;;;12.50;99.90;;;;;;5054210;28;20063;-71
2023/05/16 06:04:11;;;;;;;9.52;2.30;;;12.90;99.90;;;;;;5071639;28;20106;-71
2023/05/16 06:06:38;;;;;;;11.90;2.95;;;12.90;99.90;;;;;;5072793;28;20133;-71
2023/05/16 06:09:06;;;;;;;9.63;2.08;;;13.00;99.90;;;;;;5055821;28;20110;-72
2023/05/16 06:11:32;;;;;;;9.18;2.00;;;13.20;99.90;;;;;;5056199;28;20046;-71
2023/05/16 06:13:59;;;;;;;8.88;1.85;;;13.30;99.90;;;;;;5074242;28;20055;-72
2023/05/16 06:16:28;;;;;;;6.10;2.10;;;13.50;99.90;;;;;;5073380;28;20067;-71
2023/05/16 06:18:55;;;;;;;12.75;2.92;;;13.40;99.90;;;;;;5073921;28;20094;-72
2023/05/16 06:21:22;;;;;;;8.95;2.00;;;13.80;99.90;;;;;;5055792;28;20098;-72
2023/05/16 06:23:49;;;;;;;6.55;1.70;;;14.00;99.90;;;;;;5055524;28;20401;-71
2023/05/16 06:26:16;;;;;;;4.32;1.13;;;13.80;99.90;;;;;;5073905;28;20036;-71
2023/05/16 06:28:43;;;;;;;6.13;1.70;;;13.80;99.90;;;;;;5072843;28;20044;-72
2023/05/16 06:31:10;;;;;;;6.93;1.70;;;14.00;99.90;;;;;;5072904;28;20059;-72
2023/05/16 06:33:38;;;;;;;10.07;1.98;;;13.70;99.90;;;;;;5053737;28;20056;-71
2023/05/16 06:36:05;;;;;;;5.50;1.48;;;13.80;99.90;;;;;;5055413;28;20114;-71
2023/05/16 06:38:32;;;;;;;4.47;1.50;;;13.90;99.90;;;;;;5073239;28;20052;-72
2023/05/16 06:40:59;;;;;;;8.73;2.17;;;14.20;99.90;;;;;;5055869;28;20056;-72
2023/05/16 06:43:26;;;;;;;9.88;2.00;;;14.50;99.90;;;;;;5055631;28;20056;-72
2023/05/16 06:45:53;;;;;;;8.90;1.52;;;14.60;99.90;;;;;;5055133;28;20053;-72
2023/05/16 06:48:20;;;;;;;5.03;1.60;;;15.00;99.90;;;;;;5073262;28;20844;-71
2023/05/16 06:50:50;;;;;;;6.60;1.60;;;15.10;99.90;;;;;;5073623;28;20044;-73
2023/05/16 06:53:17;;;;;;;;;;;15.30;99.90;;;;;;5055297;28;20052;-72
2023/05/16 06:55:44;;;;;;;8.07;2.30;;;15.50;99.90;;;;;;5073148;28;19938;-72
2023/05/16 06:58:11;;;;;;;6.43;1.50;;;15.30;99.90;;;;;;5054906;28;20523;-73
2023/05/16 07:00:38;;;;;;;9.40;1.90;;;15.70;99.90;;;;;;5073000;28;20051;-72
2023/05/16 07:03:05;;;;;;;6.68;2.00;;;16.00;99.90;;;;;;5055200;28;20052;-71
2023/05/16 07:05:32;;;;;;;5.28;1.65;;;16.50;99.90;;;;;;5054777;28;20056;-72
2023/05/16 07:08:01;;;;;;;8.70;2.75;;;17.10;99.90;;;;;;5051456;28;20059;-71
2023/05/16 07:10:27;;;;;;;5.55;1.50;;;17.70;99.90;;;;;;5053181;28;20049;-72
2023/05/16 07:12:55;;;;;;;4.53;1.95;;;18.10;99.30;;;;;;5052410;28;20045;-71
2023/05/16 07:15:22;;;;;;;5.88;1.58;;;18.30;97.00;;;;;;5051948;28;20055;-72
2023/05/16 07:17:49;;;;;;;7.47;1.67;;;18.90;97.50;;;;;;5051604;28;20052;-72
2023/05/16 07:20:16;;;;;;;8.55;1.88;;;19.30;96.50;;;;;;5051246;28;20131;-72
2023/05/16 07:22:43;;;;;;;9.90;2.45;;;19.60;94.80;;;;;;5051896;28;20057;-73
2023/05/16 07:25:13;;;;;;;7.00;1.83;;;19.90;94.60;;;;;;5052808;28;20047;-73
2023/05/16 07:27:43;;;;;;;9.23;1.70;;;19.90;90.80;;;;;;5050946;28;20088;-72
2023/05/16 07:30:11;;;;;;;9.05;2.17;;;20.20;92.40;;;;;;5053269;28;20072;-73
2023/05/16 07:32:38;;;;;;;6.15;1.55;;;20.30;90.90;;;;;;5050475;28;20051;-72
2023/05/16 07:35:06;;;;;;;5.97;2.17;;;20.20;89.50;;;;;;5050989;28;20068;-73
2023/05/16 07:37:33;;;;;;;6.38;1.83;;;19.80;90.10;;;;;;5052557;28;20041;-73
2023/05/16 07:40:00;;;;;;;9.57;2.13;;;19.90;90.50;;;;;;5051261;28;20049;-73
2023/05/16 07:42:28;;;;;;;10.40;2.38;;;20.00;90.20;;;;;;5050309;28;20057;-73
2023/05/16 07:44:55;;;;;;;8.25;2.10;;;20.20;89.80;;;;;;5050424;28;20045;-72
2023/05/16 07:47:22;;;;;;;10.07;2.38;;;20.30;87.10;;;;;;5050635;28;20088;-74
2023/05/16 07:49:49;;;;;;;4.50;1.60;;;20.60;89.40;;;;;;5052622;28;20048;-73
2023/05/16 07:52:16;;;;;;;6.88;2.00;;;19.90;89.40;;;;;;5051177;28;20061;-72
2023/05/16 07:54:47;;;;;;;7.65;2.10;;;19.80;88.40;;;;;;5051745;28;20099;-74
2023/05/16 07:57:17;;;;;;;5.47;1.40;;;19.00;88.10;;;;;;5048920;28;20053;-74
2023/05/16 07:59:47;;;;;;;5.45;1.55;;;18.30;89.50;;;;;;5051281;28;20133;-72
2023/05/16 08:02:15;;;;;;;5.38;1.42;;;18.00;90.20;;;;;;5051603;28;20049;-72
2023/05/16 08:04:42;;;;;;;8.95;2.75;;;18.40;90.50;;;;;;5052158;28;20096;-73
2023/05/16 08:07:12;;;;;;;7.30;1.90;;;19.10;89.50;;;;;;5054074;28;20056;-73
2023/05/16 08:09:39;;;;;;;;;;;19.20;89.40;;;;;;5053985;28;20063;-72
2023/05/16 08:12:07;;;;;;;6.72;1.75;;;19.50;86.40;;;;;;5054398;28;19927;-72
2023/05/16 08:14:35;;;;;;;7.15;2.33;;;19.50;88.00;;;;;;5071976;28;20045;-72
2023/05/16 08:17:12;;;;;;;5.38;1.52;;;19.00;91.20;;;;;;5053448;28;20505;-73
2023/05/16 08:19:40;;;;;;;4.80;1.58;;;17.80;94.20;;;;;;5053377;28;20060;-71
2023/05/16 08:22:12;;;;;;;5.15;1.35;;;16.90;97.00;;;;;;5054209;28;20053;-72
2023/05/16 08:24:39;;;;;;;3.67;1.17;;;17.10;98.90;;;;;;5071466;28;20047;-72
2023/05/16 08:27:07;;;;;;;6.05;1.48;;;17.70;98.50;;;;;;5072063;28;20053;-72
2023/05/16 08:29:36;;;;;;;5.03;1.65;;;18.30;98.40;;;;;;5071508;28;20139;-71
2023/05/16 08:32:03;;;;;;;5.65;1.92;;;19.00;96.90;;;;;;5054023;28;20048;-72
2023/05/16 08:34:33;;;;;;;5.60;1.63;;;19.40;96.10;;;;;;5071691;28;20071;-73
2023/05/16 08:37:00;;;;;;;9.90;2.27;;;19.40;94.50;;;;;;5071536;28;20040;-71
2023/05/16 08:39:29;;;;;;;10.00;1.90;;;20.20;95.10;;;;;;5053967;28;20337;-72
2023/05/16 08:41:57;;;;;;;5.28;1.60;;;19.70;93.50;;;;;;5054028;28;20127;-72
2023/05/16 08:44:25;;;;;;;5.80;1.30;;;18.60;92.60;;;;;;5051494;28;20055;-72
2023/05/16 08:46:53;;;;;;;8.20;2.08;;;18.20;93.90;;;;;;5053781;28;20044;-73
2023/05/16 08:49:21;;;;;;;7.15;1.88;;;17.20;95.20;;;;;;5052936;28;20048;-72
2023/05/16 08:51:56;;;;;;;10.55;2.10;;;17.80;95.20;;;;;;5051125;28;20048;-72
2023/05/16 08:54:26;;;;;;;4.93;1.85;;;18.40;94.60;;;;;;5052151;28;20053;-73
2023/05/16 08:56:53;;;;;;;;;;;19.30;93.10;;;;;;5058061;28;20036;-73
2023/05/16 08:59:20;;;;;;;6.90;1.90;;;19.70;92.10;;;;;;5056820;28;19920;-75
2023/05/16 09:01:50;;;;;;;4.95;1.98;;;20.30;91.10;;;;;;5055486;28;20071;-73
2023/05/16 09:04:17;;;;;;;5.80;1.70;;;19.60;91.20;;;;;;5075542;28;20048;-73
2023/05/16 09:06:50;;;;;;;7.70;2.03;;;19.10;90.90;;;;;;5053602;28;20509;-74
2023/05/16 09:09:18;;;;;;;8.50;1.80;;;19.10;91.50;;;;;;5054071;28;20049;-73
2023/05/16 09:11:45;;;;;;;11.52;2.80;;;19.80;90.60;;;;;;5053673;28;20073;-71
2023/05/16 09:14:13;;;;;;;5.30;1.90;;;19.50;90.40;;;;;;5054224;28;20400;-72
2023/05/16 09:16:40;;;;;;;5.43;1.55;;;19.60;88.50;;;;;;5054150;28;20075;-72
2023/05/16 09:19:07;;;;;;;5.32;1.73;;;20.30;89.00;;;;;;5054583;28;20048;-72
2023/05/16 09:21:35;;;;;;;7.40;1.83;;;21.00;87.60;;;;;;5055325;28;20053;-73
2023/05/16 09:24:08;;;;;;;11.15;1.85;;;21.00;86.90;;;;;;5053839;28;20481;-73
2023/05/16 09:26:39;;;;;;;4.50;1.42;;;21.00;87.10;;;;;;5053501;28;20048;-73
2023/05/16 09:29:15;;;;;;;7.20;1.60;;;21.00;85.10;;;;;;5053483;28;20071;-73
2023/05/16 09:31:42;;;;;;;7.15;1.70;;;20.20;84.10;;;;;;5055086;28;20041;-73
2023/05/16 09:34:11;;;;;;;5.50;1.73;;;20.20;86.90;;;;;;5054293;28;20102;-73
2023/05/16 09:36:39;;;;;;;3.60;1.40;;;20.10;85.60;;;;;;5053648;28;20130;-73
2023/05/16 09:39:07;;;;;;;5.72;1.70;;;20.50;86.10;;;;;;5054608;28;20052;-73
2023/05/16 09:41:35;;;;;;;5.35;1.67;;;20.80;84.90;;;;;;5053025;28;20508;-73
2023/05/16 09:44:04;;;;;;;6.72;1.98;;;21.40;85.00;;;;;;5054688;28;20056;-73
2023/05/16 09:46:34;;;;;;;7.07;1.73;;;22.00;85.10;;;;;;5053740;28;20140;-73
2023/05/16 09:49:01;;;;;;;6.15;1.40;;;22.10;83.70;;;;;;5054101;28;20144;-74
2023/05/16 09:51:28;;;;;;;5.53;1.70;;;22.10;78.70;;;;;;5053562;28;20466;-74
2023/05/16 09:53:55;;;;;;;5.35;1.67;;;21.80;81.30;;;;;;5052971;28;20053;-72
2023/05/16 09:56:24;;;;;;;6.40;1.48;;;20.50;82.10;;;;;;5053695;28;20524;-73
2023/05/16 09:58:52;;;;;;;7.60;2.30;;;20.40;84.50;;;;;;5054692;28;20053;-73
2023/05/16 10:01:20;;;;;;;7.07;2.10;;;20.80;85.10;;;;;;5053087;28;20049;-72
2023/05/16 10:03:47;;;;;;;6.18;1.70;;;21.20;84.50;;;;;;5054394;28;20057;-74
2023/05/16 10:06:15;;;;;;;5.22;1.90;;;21.10;83.40;;;;;;5056074;28;20518;-72
2023/05/16 10:08:43;;;;;;;7.05;1.60;;;21.50;83.50;;;;;;5055838;28;20055;-72
2023/05/16 10:11:10;;;;;;;7.57;1.60;;;21.90;81.40;;;;;;5056369;28;20048;-73
2023/05/16 10:13:40;;;;;;;8.02;2.05;;;21.20;81.00;;;;;;5056025;28;20049;-73
2023/05/16 10:16:10;;;;;;;6.88;1.65;;;20.40;82.90;;;;;;5073759;28;20138;-73
2023/05/16 10:18:40;;;;;;;6.88;1.92;;;19.40;84.80;;;;;;5071814;28;20083;-73
2023/05/16 10:21:08;;;;;;;;;;;19.40;85.90;;;;;;5056544;28;20051;-72
2023/05/16 10:23:38;;;;;;;5.72;1.80;;;19.70;84.50;;;;;;5055515;28;19925;-73
2023/05/16 10:26:06;;;;;;;6.43;1.77;;;20.40;85.80;;;;;;5055936;28;20048;-73
2023/05/16 10:28:33;;;;;;;7.55;1.70;;;20.90;85.10;;;;;;5056152;28;20067;-73
2023/05/16 10:31:01;;;;;;;5.75;1.67;;;21.10;84.10;;;;;;5055334;28;20075;-73
2023/05/16 10:33:29;;;;;;;6.03;2.35;;;21.10;82.40;;;;;;5054134;28;20084;-72
2023/05/16 10:35:56;;;;;;;6.40;1.63;;;21.50;79.20;;;;;;5055233;28;20574;-72
2023/05/16 10:38:24;;;;;;;5.80;1.75;;;21.00;78.00;;;;;;5055750;28;20044;-73
2023/05/16 10:40:52;;;;;;;6.70;1.50;;;20.80;80.70;;;;;;5055670;28;20290;-73
2023/05/16 10:43:27;;;;;;;5.00;1.50;;;21.20;80.80;;;;;;5054998;28;20051;-72
2023/05/16 10:45:58;;;;;;;9.00;2.28;;;21.20;78.40;;;;;;5055567;28;20052;-73
2023/05/16 10:48:33;;;;;;;7.00;1.42;;;20.60;80.50;;;;;;5073575;28;20428;-72
2023/05/16 10:51:02;;;;;;;7.00;1.40;;;21.00;81.80;;;;;;5054809;28;20055;-72
2023/05/16 10:53:31;;;;;;;5.78;1.30;;;21.30;81.10;;;;;;5055664;28;20044;-73
2023/05/16 10:56:10;;;;;;;5.57;1.25;;;21.40;79.60;;;;;;5055205;28;20055;-72
2023/05/16 10:58:42;;;;;;;5.43;1.50;;;21.60;79.30;;;;;;5054477;28;20041;-74
2023/05/16 11:01:20;;;;;;;4.47;1.83;;;21.60;80.30;;;;;;5071188;28;20480;-73
2023/05/16 11:04:11;;;;;;;17.13;1.83;;;22.40;78.90;;;;;;5073284;28;20132;-73
2023/05/16 11:06:46;;;;;;;4.18;1.25;;;23.00;77.50;;;;;;5057423;28;20064;-73
2023/05/16 11:09:22;;;;;;;7.55;2.22;;;22.80;74.20;;;;;;5054835;28;20052;-73
2023/05/16 11:12:05;;;;;;;8.05;1.35;;;23.20;75.00;;;;;;5054564;28;20048;-73
2023/05/16 11:14:38;;;;;;;6.75;1.27;;;22.80;73.80;;;;;;5055136;28;20056;-73
2023/05/16 11:17:11;;;;;;;4.60;1.58;;;22.70;72.50;;;;;;5054238;28;20044;-73
2023/05/16 11:19:45;;;;;;;4.10;1.40;;;22.70;74.20;;;;;;5052209;28;20052;-73
2023/05/16 11:22:26;;;;;;;4.97;1.50;;;23.50;72.80;;;;;;5053173;28;20567;-73
2023/05/16 11:24:59;;;;;;;3.90;1.33;;;23.30;72.10;;;;;;5054872;28;20044;-72
2023/05/16 11:27:28;;;;;;;4.50;1.33;;;22.90;72.80;;;;;;5072290;28;20041;-71
2023/05/16 11:29:58;;;;;;;6.83;1.73;;;22.40;74.10;;;;;;5055001;28;20048;-73
2023/05/16 11:32:25;;;;;;;5.82;1.85;;;21.80;75.40;;;;;;5054177;28;20519;-73
2023/05/16 11:34:54;;;;;;;4.20;1.92;;;21.10;76.20;;;;;;5072842;28;20397;-72
2023/05/16 11:37:21;;;;;;;9.10;2.67;;;20.10;78.70;;;;;;5070595;28;20087;-72
2023/05/16 11:39:48;;;;;;;8.93;2.60;;;19.90;80.20;;;;;;5071768;28;20131;-72
2023/05/16 11:42:16;;;;;;;13.57;2.03;;;20.10;81.70;;;;;;5054715;28;20056;-73
2023/05/16 11:44:44;;;;;;;6.10;1.75;;;21.00;81.20;;;;;;5054634;28;20404;-73
2023/05/16 11:47:11;;;;;;;5.35;1.83;;;21.60;80.20;;;;;;5053878;28;20063;-73
2023/05/16 11:49:38;;;;;;;8.57;2.50;;;21.40;79.20;;;;;;5052666;28;20056;-73
2023/05/16 11:52:09;;;;;;;4.90;2.00;;;21.80;77.70;;;;;;5054473;28;21079;-73
2023/05/16 11:54:36;;;;;;;5.68;2.33;;;22.30;77.60;;;;;;5053792;28;20056;-73
2023/05/16 11:57:03;;;;;;;6.25;1.83;;;21.60;77.80;;;;;;5070400;28;20048;-73
2023/05/16 11:59:30;;;;;;;9.77;2.33;;;21.10;77.60;;;;;;5072456;28;20049;-73
2023/05/16 12:01:57;;;;;;;6.72;2.10;;;21.20;78.10;;;;;;5071717;28;20106;-73
2023/05/16 12:04:25;;;;;;;8.25;2.08;;;21.30;78.00;;;;;;5072148;28;20554;-73
2023/05/16 12:07:00;;;;;;;4.40;1.70;;;20.80;77.80;;;;;;5050858;28;20118;-72
2023/05/16 12:09:29;;;;;;;6.63;2.55;;;20.60;78.40;;;;;;5050474;28;20154;-74
2023/05/16 12:11:56;;;;;;;7.07;2.30;;;21.40;78.60;;;;;;5051145;28;20048;-74
2023/05/16 12:14:24;;;;;;;6.97;2.40;;;21.20;78.50;;;;;;5052138;28;20056;-73
2023/05/16 12:16:52;;;;;;;5.57;2.08;;;20.80;78.90;;;;;;5051265;28;20452;-74
2023/05/16 12:19:20;;;;;;;8.57;2.20;;;20.60;79.20;;;;;;5048722;28;20052;-73
2023/05/16 12:21:48;;;;;;;8.45;2.95;;;20.40;79.90;;;;;;5051353;28;20119;-73
2023/05/16 12:24:16;;;;;;;6.22;2.00;;;20.30;80.50;;;;;;5051066;28;20051;-73
2023/05/16 12:26:44;;;;;;;6.38;2.45;;;19.90;80.00;;;;;;5050730;28;20060;-73
2023/05/16 12:29:11;;;;;;;6.75;2.05;;;20.30;80.60;;;;;;5052062;28;20467;-73
2023/05/16 12:31:40;;;;;;;6.32;2.35;;;20.60;79.90;;;;;;5054915;28;20049;-72
2023/05/16 12:34:17;;;;;;;8.45;2.40;;;20.60;79.30;;;;;;5053849;28;20040;-73
2023/05/16 12:36:44;;;;;;;8.02;2.38;;;20.50;79.80;;;;;;5054419;28;20081;-73
2023/05/16 12:39:14;;;;;;;4.28;2.10;;;20.00;80.40;;;;;;5056019;28;20119;-73
2023/05/16 12:41:42;;;;;;;8.07;2.55;;;20.00;81.40;;;;;;5055961;28;20103;-73
2023/05/16 12:44:16;;;;;;;9.52;2.50;;;19.50;82.40;;;;;;5052004;28;20512;-73
2023/05/16 12:46:45;;;;;;;7.28;2.17;;;18.70;83.70;;;;;;5054612;28;20053;-73
2023/05/16 12:49:12;;;;;;;8.13;2.97;;;18.30;85.70;;;;;;5054674;28;20049;-72
2023/05/16 12:51:40;;;;;;;4.07;2.30;;;17.70;91.00;;;;;;5055195;28;20106;-73
2023/05/16 12:54:12;;;;;;;7.45;2.70;;;17.50;93.50;;;;;;5055870;28;20129;-73